createdAt,value
2022-08-08T00:02:03.446Z,1.67
2022-08-08T00:04:36.295Z,1.33
2022-08-08T00:07:16.206Z,1.67
2022-08-08T00:09:55.988Z,1.53
2022-08-08T00:12:31.748Z,1.53
2022-08-08T00:15:08.559Z,1.67
2022-08-08T00:18:03.172Z,1.70
2022-08-08T00:20:38.995Z,1.60
2022-08-08T00:23:11.417Z,1.40
2022-08-08T00:25:50.565Z,1.60
2022-08-08T00:28:35.769Z,1.70
2022-08-08T00:32:29.277Z,1.40
2022-08-08T00:34:30.604Z,1.67
2022-08-08T00:37:08.103Z,1.60
2022-08-08T00:41:07.383Z,2.27
2022-08-08T00:42:59.213Z,1.57
2022-08-08T00:45:58.815Z,1.83
2022-08-08T00:49:01.203Z,1.60
2022-08-08T00:52:03.848Z,1.60
2022-08-08T00:55:04.525Z,1.70
2022-08-08T00:58:12.734Z,1.50
2022-08-08T01:00:51.707Z,1.70
2022-08-08T01:04:02.593Z,1.70
2022-08-08T01:07:08.180Z,1.60
2022-08-08T01:10:16.059Z,1.97
2022-08-08T01:13:16.569Z,1.87
2022-08-08T01:16:32.712Z,2.00
2022-08-08T01:20:02.232Z,1.83
2022-08-08T01:24:02.993Z,1.63
2022-08-08T01:26:24.342Z,1.50
2022-08-08T01:29:23.943Z,1.70
2022-08-08T01:32:28.804Z,1.67
2022-08-08T01:35:29.859Z,1.93
2022-08-08T01:38:14.114Z,2.00
2022-08-08T01:40:55.942Z,1.57
2022-08-08T01:43:38.486Z,1.83
2022-08-08T01:46:22.846Z,2.20
2022-08-08T01:49:00.176Z,1.97
2022-08-08T01:52:29.294Z,2.20
2022-08-08T01:55:26.797Z,1.97
2022-08-08T01:58:13.342Z,1.80
2022-08-08T02:00:57.429Z,2.00
2022-08-08T02:03:54.316Z,1.63
2022-08-08T02:06:36.916Z,1.77
2022-08-08T02:10:03.136Z,1.80
2022-08-08T02:12:24.397Z,2.50
2022-08-08T02:15:00.916Z,1.70
2022-08-08T02:17:43.045Z,2.20
2022-08-08T02:21:03.094Z,1.93
2022-08-08T02:23:21.204Z,2.17
2022-08-08T02:26:00.889Z,2.40
2022-08-08T02:28:48.496Z,2.57
2022-08-08T02:31:58.201Z,2.30
2022-08-08T02:35:07.988Z,2.30
2022-08-08T02:37:52.066Z,2.50
2022-08-08T02:40:38.757Z,2.60
2022-08-08T02:44:38.439Z,2.30
2022-08-08T02:46:45.181Z,2.60
2022-08-08T02:49:51.391Z,2.27
2022-08-08T02:52:50.671Z,2.30
2022-08-08T02:56:04.543Z,2.70
2022-08-08T02:59:56.928Z,2.80
2022-08-08T03:03:01.289Z,3.10
2022-08-08T03:06:04.378Z,2.93
2022-08-08T03:09:28.726Z,2.93
2022-08-08T03:13:01.007Z,2.93
2022-08-08T03:15:59.701Z,2.47
2022-08-08T03:18:39.996Z,2.60
2022-08-08T03:21:10.238Z,2.80
2022-08-08T03:23:59.109Z,2.37
2022-08-08T03:26:42.814Z,3.50
2022-08-08T03:29:18.460Z,2.97
2022-08-08T03:32:08.627Z,2.40
2022-08-08T03:34:40.085Z,2.90
2022-08-08T03:38:00.137Z,3.07
2022-08-08T03:40:03.720Z,3.00
2022-08-08T03:42:32.036Z,2.90
2022-08-08T03:45:00.022Z,3.10
2022-08-08T03:47:45.278Z,3.30
2022-08-08T03:50:20.243Z,2.83
2022-08-08T03:52:53.116Z,3.00
2022-08-08T03:55:55.846Z,3.63
2022-08-08T03:58:35.339Z,3.60
2022-08-08T04:01:23.285Z,2.67
2022-08-08T04:03:57.446Z,2.63
2022-08-08T04:06:29.397Z,3.00
2022-08-08T04:08:58.066Z,3.27
2022-08-08T04:11:27.951Z,2.73
2022-08-08T04:14:03.266Z,2.63
2022-08-08T04:16:49.890Z,2.30
2022-08-08T04:19:23.324Z,2.10
2022-08-08T04:21:54.311Z,1.90
2022-08-08T04:24:30.717Z,2.30
2022-08-08T04:27:01.260Z,1.80
2022-08-08T04:29:36.644Z,1.93
2022-08-08T04:32:07.193Z,1.90
2022-08-08T04:34:49.530Z,2.07
2022-08-08T04:37:31.837Z,1.30
2022-08-08T04:40:06.567Z,1.67
2022-08-08T04:42:37.471Z,1.57
2022-08-08T04:45:15.906Z,1.87
2022-08-08T04:47:46.299Z,1.87
2022-08-08T04:50:24.735Z,1.87
2022-08-08T04:53:00.817Z,1.37
2022-08-08T04:55:47.730Z,1.80
2022-08-08T04:58:23.584Z,1.90
2022-08-08T05:00:52.160Z,1.57
2022-08-08T05:04:08.475Z,1.47
2022-08-08T05:06:13.151Z,1.50
2022-08-08T05:08:42.212Z,1.53
2022-08-08T05:11:23.794Z,1.83
2022-08-08T05:13:57.935Z,1.70
2022-08-08T05:16:51.029Z,1.43
2022-08-08T05:20:11.950Z,1.23
2022-08-08T05:22:07.006Z,1.77
2022-08-08T05:24:35.051Z,1.43
2022-08-08T05:27:07.017Z,1.47
2022-08-08T05:29:37.112Z,1.43
2022-08-08T05:32:07.565Z,1.40
2022-08-08T05:34:37.201Z,1.53
2022-08-08T05:37:07.577Z,1.40
2022-08-08T05:39:48.272Z,1.30
2022-08-08T05:42:19.443Z,1.50
2022-08-08T05:45:00.423Z,0.90
2022-08-08T05:47:41.662Z,1.10
2022-08-08T05:50:19.002Z,1.00
2022-08-08T05:52:49.093Z,1.10
2022-08-08T05:55:17.194Z,1.10
2022-08-08T05:58:06.221Z,1.10
2022-08-08T06:00:40.136Z,1.20
2022-08-08T06:03:25.452Z,1.40
2022-08-08T06:06:01.287Z,1.30
2022-08-08T06:08:34.811Z,1.70
2022-08-08T06:11:04.600Z,1.37
2022-08-08T06:13:35.742Z,1.50
2022-08-08T06:16:13.842Z,1.20
2022-08-08T06:18:42.944Z,1.53
2022-08-08T06:21:32.317Z,1.60
2022-08-08T06:24:03.683Z,1.30
2022-08-08T06:26:45.202Z,1.20
2022-08-08T06:29:48.766Z,1.17
2022-08-08T06:32:18.484Z,1.50
2022-08-08T06:35:11.814Z,1.20
2022-08-08T06:37:46.064Z,1.20
2022-08-08T06:40:20.114Z,1.17
2022-08-08T06:42:57.304Z,1.20
2022-08-08T06:45:29.193Z,0.90
2022-08-08T06:48:01.913Z,0.97
2022-08-08T06:50:38.193Z,1.07
2022-08-08T06:53:09.585Z,0.90
2022-08-08T06:55:43.817Z,0.87
2022-08-08T06:58:15.600Z,1.13
2022-08-08T07:00:50.313Z,1.00
2022-08-08T07:03:52.728Z,0.90
2022-08-08T07:06:26.860Z,1.27
2022-08-08T07:08:59.431Z,1.20
2022-08-08T07:11:51.347Z,1.00
2022-08-08T07:14:29.016Z,0.73
2022-08-08T07:17:09.165Z,1.10
2022-08-08T07:19:52.273Z,0.70
2022-08-08T07:22:34.061Z,0.90
2022-08-08T07:25:06.887Z,0.80
2022-08-08T07:28:00.644Z,0.70
2022-08-08T07:30:30.567Z,1.07
2022-08-08T07:33:01.888Z,0.90
2022-08-08T07:35:35.795Z,0.90
2022-08-08T07:38:10.254Z,0.90
2022-08-08T07:40:49.117Z,0.90
2022-08-08T07:43:35.342Z,0.77
2022-08-08T07:46:24.182Z,0.80
2022-08-08T07:48:55.272Z,1.20
2022-08-08T07:51:45.185Z,1.17
2022-08-08T07:54:26.548Z,0.97
2022-08-08T07:57:04.200Z,1.10
2022-08-08T07:59:49.559Z,0.80
2022-08-08T08:02:37.093Z,0.90
2022-08-08T08:05:14.860Z,0.90
2022-08-08T08:07:53.147Z,0.80
2022-08-08T08:10:30.226Z,0.87
2022-08-08T08:13:25.989Z,0.70
2022-08-08T08:16:12.028Z,0.93
2022-08-08T08:18:55.559Z,1.20
2022-08-08T08:21:44.269Z,0.70
2022-08-08T08:24:18.732Z,0.90
2022-08-08T08:26:52.665Z,1.17
2022-08-08T08:29:21.113Z,1.10
2022-08-08T08:31:54.071Z,1.00
2022-08-08T08:34:32.414Z,0.60
2022-08-08T08:37:03.381Z,0.90
2022-08-08T08:39:39.159Z,1.10
2022-08-08T08:42:31.924Z,0.70
2022-08-08T08:45:20.668Z,0.60
2022-08-08T08:47:54.001Z,0.80
2022-08-08T08:50:32.596Z,0.60
2022-08-08T08:53:27.190Z,0.90
2022-08-08T08:56:01.466Z,0.70
2022-08-08T08:58:33.560Z,0.90
2022-08-08T09:01:09.742Z,0.80
2022-08-08T09:03:45.885Z,0.77
2022-08-08T09:06:29.034Z,0.80
2022-08-08T09:09:25.866Z,0.70
2022-08-08T09:12:07.461Z,0.60
2022-08-08T09:14:42.431Z,0.87
2022-08-08T09:17:18.743Z,0.73
2022-08-08T09:22:01.170Z,0.80
2022-08-08T09:22:39.531Z,0.70
2022-08-08T09:25:09.699Z,1.00
2022-08-08T09:27:55.966Z,6.60
2022-08-08T09:30:27.921Z,0.70
2022-08-08T09:33:54.261Z,0.80
2022-08-08T09:35:49.704Z,0.70
2022-08-08T09:38:32.727Z,0.70
2022-08-08T09:41:06.289Z,0.80
2022-08-08T09:44:06.342Z,0.80
2022-08-08T09:46:45.583Z,1.10
2022-08-08T09:49:42.593Z,1.00
2022-08-08T09:52:46.778Z,1.37
2022-08-08T09:55:09.569Z,0.80
2022-08-08T09:57:55.856Z,0.80
2022-08-08T10:00:53.046Z,0.83
2022-08-08T10:03:19.886Z,0.57
2022-08-08T10:05:48.661Z,0.70
2022-08-08T10:08:18.160Z,0.60
2022-08-08T10:10:50.888Z,0.70
2022-08-08T10:13:25.966Z,0.70
2022-08-08T10:16:03.503Z,0.80
2022-08-08T10:18:34.163Z,0.80
2022-08-08T10:21:22.778Z,1.10
2022-08-08T10:23:58.262Z,0.80
2022-08-08T10:26:52.447Z,0.73
2022-08-08T10:29:24.921Z,1.00
2022-08-08T10:32:16.859Z,0.80
2022-08-08T10:34:57.172Z,0.80
2022-08-08T10:37:30.325Z,0.73
2022-08-08T10:40:00.148Z,0.70
2022-08-08T10:42:37.405Z,1.00
2022-08-08T10:45:09.277Z,0.90
2022-08-08T10:47:43.538Z,0.70
2022-08-08T10:50:16.578Z,0.53
2022-08-08T10:52:45.195Z,0.70
2022-08-08T10:55:39.780Z,0.70
2022-08-08T10:58:08.434Z,0.60
2022-08-08T11:00:48.618Z,0.70
2022-08-08T11:03:52.428Z,0.90
2022-08-08T11:06:12.243Z,0.70
2022-08-08T11:08:50.206Z,0.70
2022-08-08T11:12:00.060Z,0.80
2022-08-08T11:14:16.204Z,0.90
2022-08-08T11:16:46.398Z,0.70
2022-08-08T11:19:18.153Z,0.90
2022-08-08T11:21:55.526Z,0.70
2022-08-08T11:24:29.151Z,0.70
2022-08-08T11:26:59.193Z,1.60
2022-08-08T11:29:51.302Z,1.10
2022-08-08T11:32:22.587Z,0.70
2022-08-08T11:35:24.880Z,0.73
2022-08-08T11:38:35.356Z,0.90
2022-08-08T11:40:43.163Z,0.83
2022-08-08T11:43:17.938Z,0.73
2022-08-08T11:46:08.900Z,1.10
2022-08-08T11:48:37.499Z,1.00
2022-08-08T11:51:38.245Z,1.33
2022-08-08T11:54:01.193Z,1.20
2022-08-08T11:56:35.035Z,1.10
2022-08-08T11:59:10.534Z,0.80
2022-08-08T12:01:38.885Z,0.80
2022-08-08T12:04:10.367Z,1.07
2022-08-08T12:06:42.867Z,0.80
2022-08-08T12:09:17.201Z,1.00
2022-08-08T12:11:49.327Z,0.80
2022-08-08T12:14:24.047Z,1.00
2022-08-08T12:16:58.206Z,0.90
2022-08-08T12:19:37.912Z,0.90
2022-08-08T12:22:20.582Z,1.50
2022-08-08T12:24:53.958Z,1.20
2022-08-08T12:27:27.051Z,1.17
2022-08-08T12:30:15.878Z,0.80
2022-08-08T12:32:50.499Z,1.13
2022-08-08T12:35:23.713Z,1.00
2022-08-08T12:38:07.110Z,1.30
2022-08-08T12:40:54.354Z,1.03
2022-08-08T12:43:46.235Z,1.17
2022-08-08T12:46:26.678Z,0.90
2022-08-08T12:51:58.803Z,0.97
2022-08-08T12:54:35.762Z,0.90
2022-08-08T12:57:17.193Z,1.10
2022-08-08T13:00:05.907Z,1.27
2022-08-08T13:02:51.740Z,0.90
2022-08-08T13:05:26.250Z,1.10
2022-08-08T13:08:16.935Z,1.13
2022-08-08T13:10:56.751Z,0.90
2022-08-08T13:13:34.957Z,1.63
2022-08-08T13:16:18.815Z,1.00
2022-08-08T13:18:48.791Z,0.83
2022-08-08T13:21:36.559Z,1.57
2022-08-08T13:24:18.698Z,1.00
2022-08-08T13:27:11.666Z,1.00
2022-08-08T13:29:50.622Z,1.10
2022-08-08T13:32:20.905Z,1.10
2022-08-08T13:34:53.605Z,1.00
2022-08-08T13:37:27.920Z,1.10
2022-08-08T13:40:17.689Z,1.20
2022-08-08T13:42:57.692Z,1.70
2022-08-08T13:45:26.632Z,1.23
2022-08-08T13:47:59.390Z,1.50
2022-08-08T13:50:37.160Z,1.00
2022-08-08T13:53:25.133Z,1.00
2022-08-08T13:56:00.660Z,1.30
2022-08-08T13:58:30.704Z,1.63
2022-08-08T14:00:58.777Z,1.57
2022-08-08T14:03:52.562Z,1.30
2022-08-08T14:06:33.170Z,1.60
2022-08-08T14:09:24.755Z,0.93
2022-08-08T14:11:51.253Z,1.00
2022-08-08T14:14:27.270Z,1.20
2022-08-08T14:16:57.296Z,0.90
2022-08-08T14:19:57.389Z,0.90
2022-08-08T14:22:24.597Z,1.07
2022-08-08T14:24:59.614Z,1.00
2022-08-08T14:27:29.539Z,1.27
2022-08-08T14:30:02.032Z,1.30
2022-08-08T14:32:31.880Z,1.07
2022-08-08T14:35:05.748Z,1.30
2022-08-08T14:37:43.163Z,1.10
2022-08-08T14:40:27.716Z,1.07
2022-08-08T14:43:01.418Z,1.00
2022-08-08T14:46:01.453Z,1.10
2022-08-08T14:48:34.289Z,1.00
2022-08-08T14:51:07.757Z,1.10
2022-08-08T14:53:55.206Z,1.17
2022-08-08T14:56:25.402Z,1.30
2022-08-08T14:58:54.577Z,1.10
2022-08-08T15:01:40.671Z,1.20
2022-08-08T15:04:10.419Z,1.00
2022-08-08T15:06:38.910Z,1.30
2022-08-08T15:09:07.968Z,1.47
2022-08-08T15:11:43.360Z,1.30
2022-08-08T15:14:24.976Z,1.00
2022-08-08T15:16:57.094Z,1.13
2022-08-08T15:19:28.126Z,1.73
2022-08-08T15:21:57.853Z,1.60
2022-08-08T15:24:31.029Z,1.60
2022-08-08T15:27:12.084Z,1.43
2022-08-08T15:29:48.658Z,1.80
2022-08-08T15:32:20.958Z,0.90
2022-08-08T15:34:51.499Z,1.50
2022-08-08T15:37:19.522Z,1.20
2022-08-08T15:39:48.245Z,1.20
2022-08-08T15:42:31.238Z,1.10
2022-08-08T15:45:01.535Z,1.50
2022-08-08T15:47:32.273Z,1.03
2022-08-08T15:50:01.863Z,1.30
2022-08-08T15:52:33.010Z,1.30
2022-08-08T15:55:01.374Z,1.90
2022-08-08T15:57:35.630Z,1.13
2022-08-08T16:00:25.737Z,1.10
2022-08-08T16:02:57.962Z,2.10
2022-08-08T16:05:36.070Z,1.40
2022-08-08T16:08:20.026Z,1.80
2022-08-08T16:13:03.741Z,1.80
2022-08-08T16:13:44.953Z,1.70
2022-08-08T16:16:17.433Z,1.37
2022-08-08T16:18:56.853Z,1.50
2022-08-08T16:21:29.042Z,1.40
2022-08-08T16:23:58.073Z,1.30
2022-08-08T16:26:34.108Z,1.20
2022-08-08T16:29:08.115Z,1.33
2022-08-08T16:31:40.412Z,1.50
2022-08-08T16:34:10.282Z,1.07
2022-08-08T16:36:40.782Z,1.70
2022-08-08T16:39:27.777Z,1.70
2022-08-08T16:42:01.173Z,1.80
2022-08-08T16:44:34.234Z,1.67
2022-08-08T16:47:21.823Z,1.90
2022-08-08T16:50:02.895Z,1.60
2022-08-08T16:55:04.912Z,1.73
2022-08-08T16:55:33.858Z,1.80
2022-08-08T16:58:15.226Z,2.33
2022-08-08T17:00:49.185Z,1.57
2022-08-08T17:03:24.324Z,2.20
2022-08-08T17:05:56.860Z,1.70
2022-08-08T17:08:25.080Z,2.40
2022-08-08T17:10:58.785Z,2.50
2022-08-08T17:13:50.216Z,1.70
2022-08-08T17:16:22.015Z,1.47
2022-08-08T17:18:52.334Z,1.90
2022-08-08T17:21:22.074Z,2.40
2022-08-08T17:24:01.736Z,1.80
2022-08-08T17:26:32.583Z,1.20
2022-08-08T17:29:04.086Z,2.33
2022-08-08T17:31:44.953Z,1.50
2022-08-08T17:34:53.107Z,1.57
2022-08-08T17:37:06.834Z,1.77
2022-08-08T17:40:03.284Z,1.70
2022-08-08T17:42:25.893Z,2.00
2022-08-08T17:44:55.048Z,1.40
2022-08-08T17:47:27.561Z,2.00
2022-08-08T17:50:01.104Z,1.60
2022-08-08T17:52:35.161Z,1.40
2022-08-08T17:55:05.087Z,1.43
2022-08-08T17:57:35.376Z,1.87
2022-08-08T18:00:06.010Z,1.67
2022-08-08T18:02:52.220Z,1.63
2022-08-08T18:05:29.823Z,1.73
2022-08-08T18:08:24.604Z,2.10
2022-08-08T18:11:08.434Z,1.50
2022-08-08T18:13:41.609Z,1.80
2022-08-08T18:16:10.977Z,1.97
2022-08-08T18:18:45.140Z,1.87
2022-08-08T18:21:34.389Z,1.77
2022-08-08T18:24:17.526Z,2.10
2022-08-08T18:26:55.001Z,1.73
2022-08-08T18:29:29.822Z,2.00
2022-08-08T18:32:03.522Z,2.13
2022-08-08T18:34:32.772Z,1.93
2022-08-08T18:37:04.661Z,1.70
2022-08-08T18:39:36.369Z,2.27
2022-08-08T18:42:12.936Z,2.60
2022-08-08T18:44:54.937Z,2.60
2022-08-08T18:47:24.916Z,1.93
2022-08-08T18:49:58.775Z,2.47
2022-08-08T18:52:29.978Z,1.93
2022-08-08T18:55:10.484Z,2.33
2022-08-08T18:57:44.571Z,2.07
2022-08-08T19:00:19.665Z,2.03
2022-08-08T19:02:55.952Z,2.20
2022-08-08T19:05:34.343Z,2.50
2022-08-08T19:08:10.054Z,2.63
2022-08-08T19:10:41.204Z,2.37
2022-08-08T19:13:10.902Z,2.80
2022-08-08T19:15:51.968Z,2.03
2022-08-08T19:18:33.617Z,2.20
2022-08-08T19:21:29.217Z,1.80
2022-08-08T19:24:00.604Z,1.80
2022-08-08T19:26:31.259Z,1.90
2022-08-08T19:29:00.011Z,2.40
2022-08-08T19:31:31.384Z,2.00
2022-08-08T19:34:29.756Z,1.80
2022-08-08T19:36:53.239Z,2.03
2022-08-08T19:39:23.722Z,2.30
2022-08-08T19:41:53.076Z,2.37
2022-08-08T19:44:26.991Z,2.43
2022-08-08T19:47:09.467Z,3.00
2022-08-08T19:49:43.505Z,2.57
2022-08-08T19:52:34.950Z,1.90
2022-08-08T19:55:09.365Z,2.87
2022-08-08T19:57:42.594Z,2.07
2022-08-08T20:00:30.609Z,2.03
2022-08-08T20:03:00.960Z,2.20
2022-08-08T20:06:14.777Z,1.97
2022-08-08T20:08:29.240Z,1.97
2022-08-08T20:11:00.888Z,2.30
2022-08-08T20:14:13.078Z,2.77
2022-08-08T20:16:19.448Z,2.57
2022-08-08T20:18:53.137Z,2.23
2022-08-08T20:21:25.845Z,2.90
2022-08-08T20:23:57.558Z,2.50
2022-08-08T20:26:27.679Z,2.17
2022-08-08T20:28:59.259Z,2.37
2022-08-08T20:31:47.233Z,2.00
2022-08-08T20:34:30.514Z,2.37
2022-08-08T20:37:00.200Z,2.10
2022-08-08T20:39:39.453Z,1.87
2022-08-08T20:42:17.085Z,2.20
2022-08-08T20:44:48.328Z,1.90
2022-08-08T20:47:23.524Z,1.93
2022-08-08T20:49:54.519Z,1.77
2022-08-08T20:52:27.770Z,1.80
2022-08-08T20:54:56.379Z,2.60
2022-08-08T20:57:25.422Z,2.27
2022-08-08T20:59:57.089Z,2.33
2022-08-08T21:02:28.184Z,2.00
2022-08-08T21:05:01.149Z,1.90
2022-08-08T21:07:47.233Z,2.00
2022-08-08T21:10:20.985Z,2.00
2022-08-08T21:12:54.372Z,2.60
2022-08-08T21:16:05.777Z,2.00
2022-08-08T21:18:12.753Z,1.70
2022-08-08T21:20:42.430Z,2.00
2022-08-08T21:23:13.192Z,1.50
2022-08-08T21:25:48.890Z,2.00
2022-08-08T21:28:33.445Z,2.57
2022-08-08T21:31:22.617Z,1.77
2022-08-08T21:33:51.910Z,2.03
2022-08-08T21:36:21.494Z,2.60
2022-08-08T21:38:56.943Z,3.40
2022-08-08T21:41:38.628Z,4.17
2022-08-08T21:44:11.689Z,3.07
2022-08-08T21:48:00.659Z,3.80
2022-08-08T21:49:31.579Z,3.10
2022-08-08T21:54:35.078Z,2.40
2022-08-08T21:54:54.016Z,3.00
2022-08-08T21:57:23.443Z,2.60
2022-08-08T22:00:03.764Z,2.87
2022-08-08T22:02:34.735Z,2.00
2022-08-08T22:05:02.879Z,2.03
2022-08-08T22:07:39.652Z,2.10
2022-08-08T22:10:17.897Z,2.20
2022-08-08T22:13:16.649Z,3.37
2022-08-08T22:15:59.794Z,3.57
2022-08-08T22:18:33.061Z,3.93
2022-08-08T22:21:13.818Z,2.83
2022-08-08T22:23:50.780Z,2.80
2022-08-08T22:26:29.681Z,2.80
2022-08-08T22:29:04.491Z,2.53
2022-08-08T22:31:43.279Z,3.00
2022-08-08T22:34:15.361Z,2.40
2022-08-08T22:36:43.987Z,2.53
2022-08-08T22:39:19.460Z,3.07
2022-08-08T22:41:49.311Z,2.50
2022-08-08T22:44:18.070Z,3.07
2022-08-08T22:46:46.445Z,4.17
2022-08-08T22:49:20.807Z,2.67
2022-08-08T22:51:49.486Z,2.33
2022-08-08T22:54:34.178Z,3.20
2022-08-08T22:57:11.456Z,2.50
2022-08-08T22:59:48.553Z,2.37
2022-08-08T23:02:29.250Z,2.87
2022-08-08T23:04:58.689Z,2.60
2022-08-08T23:07:57.126Z,3.37
2022-08-08T23:10:25.554Z,2.60
2022-08-08T23:12:56.189Z,2.20
2022-08-08T23:16:38.624Z,2.67
2022-08-08T23:18:13.742Z,2.80
2022-08-08T23:20:44.407Z,2.63
2022-08-08T23:23:19.903Z,2.60
2022-08-08T23:25:50.944Z,2.23
2022-08-08T23:28:19.292Z,3.03
2022-08-08T23:30:48.038Z,2.50
2022-08-08T23:33:21.211Z,2.30
2022-08-08T23:36:09.094Z,2.63
2022-08-08T23:38:41.711Z,2.10
2022-08-08T23:41:23.085Z,2.50
2022-08-08T23:43:54.387Z,2.80
2022-08-08T23:49:04.328Z,2.60
2022-08-08T23:49:18.481Z,2.33
2022-08-08T23:52:07.135Z,3.00
2022-08-08T23:54:41.892Z,2.97
2022-08-08T23:57:27.217Z,3.00
